Shawano, WI

3:13 PM CDT on March 29, 2015 (GMT -0500)
Shawano | | Change Station
CLOSE
Current Station
Airport
Location: Shawano,
Elevation: 814 ft
Nearby Weather Stations

Elev 814 ft 44.79 °N, 88.56 °W | Updated 18 minutes ago

Drizzle
Drizzle
36 °F
Feels Like 28 °F
N
10
Wind Variable Wind from SW

Today
High -- | Low -- °F
--% Chance of Precip.
Yesterday
High -- | Low -- °F
Precip. -- in
6:41 AM 7:17 PM
Waxing Gibbous, 74% visible
Pressure 29.55 in
Visibility 1.8 miles
Clouds Overcast 800 ft
Windchill 28 °F
Dew Point 33 °F
Humidity 90%
Rainfall 0.11 in
Snow Depth Not available.
UV 2 out of 12
Pollen 2.30 out of 12
Air Quality Not available.
Flu Activity Not available.
METAR KEZS 291955Z AUTO 23009KT 1 3/4SM DZ OVC008 02/01 A2955 RMK AO2 T00200005

More Conditions Fewer Conditions

Pressure 29.55 in
Visibility 1.8 miles
Clouds Overcast 800 ft
Windchill 28 °F
Dew Point 33 °F
Humidity 90%
Rainfall 0.11 in
Snow Depth Not available.
UV 2 out of 12
Pollen 2.30 out of 12
Air Quality Not available.
Flu Activity Not available.
METAR KEZS 291955Z AUTO 23009KT 1 3/4SM DZ OVC008 02/01 A2955 RMK AO2 T00200005

More Conditions Fewer Conditions

10-Day Weather Forecast

Almanac

Astronomy

Mar. 29, 2015 Rise Set
Actual Time
Civil Twilight
Nautical Twilight
Astronomical Twilight
Moon
Length of Visible Light
Length of Day
Tomorrow will be .
, % of the Moon is Illuminated

Today's Extremes

State Highs State Lows

Community

WunderPhotos

Upload Photos

1,809,341 photos uploaded!

WunderBlogs® & News

Nearby

Air Quality

  Air Quality AQ Index Pollutant
Not available.

Snow Depth

Station Depth Elevation

Earthquake Activity

City Distance Mag. Time & Date
Minimum magnitude displayed is 2.5.

Coastal Water Temperatures

Place Temperature

Stations

Nearby Weather Stations

Station Location Temp. Windchill Dew Point Humidity Wind Precip. Elev Updated Type